YFSK weather

Fiskville Airport
Fiskville, Victoria, Australia

Public forecast

Using degrees Celsius for public forecast. Weather courtesy of forecast.io.

METAR (pilot weather report)

Closest report is Avalon Airport, 24.7 nm (45.7 km) SSE. Retrieved 2018/10/18 01:00 UTC (5 minutes ago):

YMAV 180100Z AUTO 31013KT 9999 // BKN033 OVC042 OVC057 19/12 Q1013

TAF (pilot weather forecast)

Forecast is more than 12 hours old.

Closest forecast is Avalon Airport, 24.7 nm (45.7 km) SSE. Retrieved 2018/10/17 00:00 UTC (1 day ago):

TAF YMAV 172305Z 1800/1824 31012KT 9999 -SHRA SCT035 BKN050 FM180900 33008KT 9999 SCT020 BKN035 FM181400 36006KT 9999 FEW020 SCT035 FM182200 01012KT CAVOK